Time,TemperatureF,DewpointF,PressureIn,WindDirection,WindDirectionDegrees,WindSpeedMPH,WindSpeedGustMPH,Humidity,HourlyPrecipIn,Conditions,Clouds,dailyrainin,SoftwareType,DateUTC
2013-01-20 00:00:00,34.0,12.2,29.95,NE,55,0.0,3.6,40,0.00,,---,0.00,VWS V14.01,2013-01-20 05:00:00,
2013-01-20 00:02:00,33.8,12.1,29.95,NE,55,2.7,2.7,40,0.00,,---,0.00,VWS V14.01,2013-01-20 05:02:00,
2013-01-20 00:03:00,33.8,12.1,29.95,NE,55,0.0,0.0,40,0.00,,---,0.00,VWS V14.01,2013-01-20 05:03:00,
2013-01-20 00:08:00,33.6,11.9,29.95,NE,55,0.0,0.0,40,0.00,,---,0.00,VWS V14.01,2013-01-20 05:08:00,
2013-01-20 00:13:00,33.6,11.9,29.95,SSW,208,4.9,4.9,40,0.00,,---,0.00,VWS V14.01,2013-01-20 05:13:00,
2013-01-20 00:18:00,34.2,12.4,29.95,SSW,208,0.0,0.0,40,0.00,,---,0.00,VWS V14.01,2013-01-20 05:18:00,
2013-01-20 00:23:00,34.0,12.2,29.95,SSW,204,0.0,0.0,40,0.00,,---,0.00,VWS V14.01,2013-01-20 05:23:00,
2013-01-20 00:28:00,34.0,12.2,29.95,East,94,0.0,0.0,40,0.00,,---,0.00,VWS V14.01,2013-01-20 05:28:00,
2013-01-20 00:33:00,34.0,12.2,29.95,ESE,107,0.0,0.0,40,0.00,,---,0.00,VWS V14.01,2013-01-20 05:33:00,
2013-01-20 00:38:00,34.3,12.5,29.95,NW,316,2.7,2.7,40,0.00,,---,0.00,VWS V14.01,2013-01-20 05:38:00,
2013-01-20 00:43:00,34.3,11.4,29.95,NE,54,0.0,0.0,38,0.00,,---,0.00,VWS V14.01,2013-01-20 05:43:00,
2013-01-20 00:48:00,34.5,12.1,29.95,NE,39,0.0,0.0,39,0.00,,---,0.00,VWS V14.01,2013-01-20 05:48:00,
2013-01-20 00:53:00,34.5,12.7,29.95,NE,39,0.0,0.0,40,0.00,,---,0.00,VWS V14.01,2013-01-20 05:53:00,
2013-01-20 00:58:00,34.3,12.5,29.92,North,4,0.0,0.0,40,0.00,,---,0.00,VWS V14.01,2013-01-20 05:58:00,
2013-01-20 01:03:00,34.3,12.0,29.92,East,94,0.0,2.2,39,0.00,,---,0.00,VWS V14.01,2013-01-20 06:03:00,
2013-01-20 01:08:00,34.5,12.7,29.92,ENE,67,2.7,3.6,40,0.00,,---,0.00,VWS V14.01,2013-01-20 06:08:00,
2013-01-20 01:14:00,34.2,12.4,29.92,NE,45,2.2,2.7,40,0.00,,---,0.00,VWS V14.01,2013-01-20 06:14:00,
2013-01-20 01:19:00,34.2,12.4,29.92,NE,52,0.0,0.0,40,0.00,,---,0.00,VWS V14.01,2013-01-20 06:19:00,
2013-01-20 01:24:00,34.3,11.4,29.92,ESE,102,2.7,2.7,38,0.00,,---,0.00,VWS V14.01,2013-01-20 06:24:00,
2013-01-20 01:29:00,35.1,10.8,29.92,East,79,2.7,2.7,36,0.00,,---,0.00,VWS V14.01,2013-01-20 06:29:00,
2013-01-20 01:34:00,35.4,11.8,29.92,ENE,57,2.2,2.2,37,0.00,,---,0.00,VWS V14.01,2013-01-20 06:34:00,
2013-01-20 01:39:00,35.4,11.1,29.92,NE,50,0.0,0.0,36,0.00,,---,0.00,VWS V14.01,2013-01-20 06:39:00,
2013-01-20 01:44:00,35.6,10.0,29.92,ESE,117,0.0,0.0,34,0.00,,---,0.00,VWS V14.01,2013-01-20 06:44:00,
2013-01-20 01:49:00,35.6,10.7,29.92,South,187,2.7,2.7,35,0.00,,---,0.00,VWS V14.01,2013-01-20 06:49:00,
2013-01-20 01:54:00,35.8,10.2,29.92,ENE,67,0.0,0.0,34,0.00,,---,0.00,VWS V14.01,2013-01-20 06:54:00,
2013-01-20 01:59:00,36.0,10.3,29.92,ESE,104,0.0,0.0,34,0.00,,---,0.00,VWS V14.01,2013-01-20 06:59:00,
2013-01-20 02:04:00,36.5,10.1,29.92,SE,128,3.1,3.1,33,0.00,,---,0.00,VWS V14.01,2013-01-20 07:04:00,
2013-01-20 02:09:00,36.5,10.8,29.92,ENE,62,2.7,3.6,34,0.00,,---,0.00,VWS V14.01,2013-01-20 07:09:00,
2013-01-20 02:14:00,36.3,10.0,29.92,East,90,2.7,3.1,33,0.00,,---,0.00,VWS V14.01,2013-01-20 07:14:00,
2013-01-20 02:19:00,36.9,10.5,29.92,WSW,256,0.0,0.0,33,0.00,,---,0.00,VWS V14.01,2013-01-20 07:19:00,
2013-01-20 02:24:00,36.7,10.3,29.92,South,173,0.0,0.0,33,0.00,,---,0.00,VWS V14.01,2013-01-20 07:24:00,
2013-01-20 02:30:00,36.5,10.1,29.92,South,174,0.0,0.0,33,0.00,,---,0.00,VWS V14.01,2013-01-20 07:30:00,
2013-01-20 02:35:00,36.1,9.8,29.92,SW,222,0.0,0.0,33,0.00,,---,0.00,VWS V14.01,2013-01-20 07:35:00,
2013-01-20 02:40:00,36.1,9.8,29.92,SSE,154,0.0,2.7,33,0.00,,---,0.00,VWS V14.01,2013-01-20 07:40:00,
2013-01-20 02:45:00,36.3,10.0,29.92,SSW,211,5.4,5.4,33,0.00,,---,0.00,VWS V14.01,2013-01-20 07:45:00,
2013-01-20 02:50:00,36.9,9.8,29.92,SSW,195,3.1,6.3,32,0.00,,---,0.00,VWS V14.01,2013-01-20 07:50:00,
2013-01-20 02:55:00,37.0,9.9,29.92,SSW,211,3.6,4.9,32,0.00,,---,0.00,VWS V14.01,2013-01-20 07:55:00,
2013-01-20 03:00:00,37.0,9.9,29.92,SW,216,3.1,4.0,32,0.00,,---,0.00,VWS V14.01,2013-01-20 08:00:00,
2013-01-20 03:05:00,37.2,10.1,29.92,SSW,197,3.1,3.1,32,0.00,,---,0.00,VWS V14.01,2013-01-20 08:05:00,
2013-01-20 03:10:00,37.4,10.2,29.92,SSW,211,4.0,4.0,32,0.00,,---,0.00,VWS V14.01,2013-01-20 08:10:00,
2013-01-20 03:15:00,37.6,10.4,29.92,South,188,0.0,0.0,32,0.00,,---,0.00,VWS V14.01,2013-01-20 08:15:00,
2013-01-20 03:20:00,37.8,9.9,29.92,WSW,238,3.6,3.6,31,0.00,,---,0.00,VWS V14.01,2013-01-20 08:20:00,
2013-01-20 03:25:00,37.8,9.9,29.92,SW,227,4.0,5.4,31,0.00,,---,0.00,VWS V14.01,2013-01-20 08:25:00,
2013-01-20 03:30:00,37.8,9.9,29.92,SSW,213,3.1,3.1,31,0.00,,---,0.00,VWS V14.01,2013-01-20 08:30:00,
2013-01-20 03:35:00,37.8,10.6,29.92,WSW,242,2.7,2.7,32,0.00,,---,0.00,VWS V14.01,2013-01-20 08:35:00,
2013-01-20 03:40:00,37.6,9.7,29.92,SW,230,5.4,5.4,31,0.00,,---,0.00,VWS V14.01,2013-01-20 08:40:00,
2013-01-20 03:45:00,37.8,9.9,29.92,SSW,195,3.1,5.4,31,0.00,,---,0.00,VWS V14.01,2013-01-20 08:45:00,
2013-01-20 03:50:00,37.9,10.0,29.92,SSE,166,4.9,5.8,31,0.00,,---,0.00,VWS V14.01,2013-01-20 08:50:00,
2013-01-20 03:55:00,38.1,10.9,29.92,SW,231,2.7,2.7,32,0.00,,---,0.00,VWS V14.01,2013-01-20 08:55:00,
2013-01-20 04:00:00,38.1,10.9,29.92,SSW,211,4.0,4.0,32,0.00,,---,0.00,VWS V14.01,2013-01-20 09:00:00,
2013-01-20 04:05:00,37.9,10.7,29.92,SSW,201,4.0,5.8,32,0.00,,---,0.00,VWS V14.01,2013-01-20 09:05:00,
2013-01-20 04:10:00,37.8,10.6,29.92,SSW,204,0.0,0.0,32,0.00,,---,0.00,VWS V14.01,2013-01-20 09:10:00,
2013-01-20 04:15:00,37.4,10.2,29.92,SW,214,3.1,3.6,32,0.00,,---,0.00,VWS V14.01,2013-01-20 09:15:00,
2013-01-20 04:20:00,37.4,10.2,29.92,WNW,282,7.6,7.6,32,0.00,,---,0.00,VWS V14.01,2013-01-20 09:20:00,
2013-01-20 04:25:00,37.6,11.1,29.89,SW,230,2.7,3.6,33,0.00,,---,0.00,VWS V14.01,2013-01-20 09:25:00,
2013-01-20 04:30:00,37.6,11.1,29.89,South,180,3.6,4.0,33,0.00,,---,0.00,VWS V14.01,2013-01-20 09:30:00,
2013-01-20 04:35:00,37.0,11.3,29.89,South,173,3.1,4.0,34,0.00,,---,0.00,VWS V14.01,2013-01-20 09:35:00,
2013-01-20 04:40:00,37.0,11.3,29.89,SW,230,3.6,6.3,34,0.00,,---,0.00,VWS V14.01,2013-01-20 09:40:00,
2013-01-20 04:45:00,37.4,10.9,29.89,SSW,195,8.1,8.1,33,0.00,,---,0.00,VWS V14.01,2013-01-20 09:45:00,
2013-01-20 04:50:00,37.6,11.1,29.89,South,178,2.7,4.9,33,0.00,,---,0.00,VWS V14.01,2013-01-20 09:50:00,
2013-01-20 04:55:00,37.2,11.4,29.89,SSW,205,4.0,5.8,34,0.00,,---,0.00,VWS V14.01,2013-01-20 09:55:00,
2013-01-20 05:00:00,37.4,11.6,29.89,South,177,3.6,4.9,34,0.00,,---,0.00,VWS V14.01,2013-01-20 10:00:00,
2013-01-20 05:05:00,37.4,11.6,29.89,SSW,209,3.6,3.6,34,0.00,,---,0.00,VWS V14.01,2013-01-20 10:05:00,
2013-01-20 05:11:00,37.6,11.8,29.89,SSW,201,4.0,4.9,34,0.00,,---,0.00,VWS V14.01,2013-01-20 10:11:00,
2013-01-20 05:16:00,37.6,11.8,29.89,SW,220,6.3,6.3,34,0.00,,---,0.00,VWS V14.01,2013-01-20 10:16:00,
2013-01-20 05:21:00,37.8,11.9,29.89,WSW,251,3.1,3.6,34,0.00,,---,0.00,VWS V14.01,2013-01-20 10:21:00,
2013-01-20 05:26:00,37.6,11.8,29.89,SSW,213,5.4,5.8,34,0.00,,---,0.00,VWS V14.01,2013-01-20 10:26:00,
2013-01-20 05:31:00,37.6,11.8,29.89,SW,224,5.8,6.3,34,0.00,,---,0.00,VWS V14.01,2013-01-20 10:31:00,
2013-01-20 05:36:00,37.8,11.9,29.89,South,179,5.4,7.6,34,0.00,,---,0.00,VWS V14.01,2013-01-20 10:36:00,
2013-01-20 05:41:00,37.8,12.6,29.89,SW,233,8.7,8.7,35,0.00,,---,0.00,VWS V14.01,2013-01-20 10:41:00,
2013-01-20 05:46:00,37.6,12.4,29.89,SSW,207,5.8,5.8,35,0.00,,---,0.00,VWS V14.01,2013-01-20 10:46:00,
2013-01-20 05:51:00,37.8,12.6,29.89,SW,234,3.6,7.6,35,0.00,,---,0.00,VWS V14.01,2013-01-20 10:51:00,
2013-01-20 05:56:00,37.9,12.7,29.89,West,271,5.8,8.1,35,0.00,,---,0.00,VWS V14.01,2013-01-20 10:56:00,
2013-01-20 06:01:00,37.8,12.6,29.89,SW,223,3.6,4.0,35,0.00,,---,0.00,VWS V14.01,2013-01-20 11:01:00,
2013-01-20 06:06:00,37.4,12.9,29.89,SW,229,2.7,3.1,36,0.00,,---,0.00,VWS V14.01,2013-01-20 11:06:00,
2013-01-20 06:11:00,37.2,13.4,29.89,SSW,213,4.0,5.8,37,0.00,,---,0.00,VWS V14.01,2013-01-20 11:11:00,
2013-01-20 06:16:00,36.9,13.6,29.89,SW,221,5.8,5.8,38,0.00,,---,0.00,VWS V14.01,2013-01-20 11:16:00,
2013-01-20 06:21:00,37.0,14.4,29.89,SSE,164,4.9,4.9,39,0.00,,---,0.00,VWS V14.01,2013-01-20 11:21:00,
2013-01-20 06:26:00,37.4,14.7,29.89,SW,214,5.8,6.3,39,0.00,,---,0.00,VWS V14.01,2013-01-20 11:26:00,
2013-01-20 06:31:00,37.6,14.3,29.89,West,269,5.8,7.6,38,0.00,,---,0.00,VWS V14.01,2013-01-20 11:31:00,
2013-01-20 06:36:00,37.4,14.1,29.89,ESE,106,4.0,5.4,38,0.00,,---,0.00,VWS V14.01,2013-01-20 11:36:00,
2013-01-20 06:41:00,37.4,14.7,29.89,SW,221,5.8,5.8,39,0.00,,---,0.00,VWS V14.01,2013-01-20 11:41:00,
2013-01-20 06:47:00,37.4,14.1,29.89,SW,230,5.4,8.7,38,0.00,,---,0.00,VWS V14.01,2013-01-20 11:47:00,
2013-01-20 06:52:00,37.2,14.6,29.89,West,268,4.0,7.2,39,0.00,,---,0.00,VWS V14.01,2013-01-20 11:52:00,
2013-01-20 06:57:00,37.4,14.7,29.89,West,260,4.5,4.9,39,0.00,,---,0.00,VWS V14.01,2013-01-20 11:57:00,
2013-01-20 07:02:00,37.2,14.6,29.89,SW,222,5.4,7.6,39,0.00,,---,0.00,VWS V14.01,2013-01-20 12:02:00,
2013-01-20 07:07:00,37.0,14.4,29.89,SSW,202,3.1,3.1,39,0.00,,---,0.00,VWS V14.01,2013-01-20 12:07:00,
2013-01-20 07:12:00,36.9,14.8,29.89,WSW,238,5.4,10.1,40,0.00,,---,0.00,VWS V14.01,2013-01-20 12:12:00,
2013-01-20 07:17:00,36.9,14.8,29.89,SSW,200,10.1,10.1,40,0.00,,---,0.00,VWS V14.01,2013-01-20 12:17:00,
2013-01-20 07:22:00,37.2,15.1,29.89,South,188,3.6,3.6,40,0.00,,---,0.00,VWS V14.01,2013-01-20 12:22:00,
2013-01-20 07:27:00,37.2,15.1,29.89,SW,216,4.0,7.6,40,0.00,,---,0.00,VWS V14.01,2013-01-20 12:27:00,
2013-01-20 07:32:00,37.2,15.1,29.89,SW,234,10.1,10.1,40,0.00,,---,0.00,VWS V14.01,2013-01-20 12:32:00,
2013-01-20 07:37:00,37.4,14.7,29.89,WSW,238,2.7,3.1,39,0.00,,---,0.00,VWS V14.01,2013-01-20 12:37:00,
2013-01-20 07:43:00,37.2,15.1,29.89,SSE,163,4.0,5.8,40,0.00,,---,0.00,VWS V14.01,2013-01-20 12:43:00,
2013-01-20 07:48:00,37.0,15.0,29.89,South,191,3.6,3.6,40,0.00,,---,0.00,VWS V14.01,2013-01-20 12:48:00,
2013-01-20 07:53:00,36.9,14.8,29.89,South,177,3.6,6.3,40,0.00,,---,0.00,VWS V14.01,2013-01-20 12:53:00,
2013-01-20 07:58:00,36.7,15.2,29.89,WSW,245,3.6,5.4,41,0.00,,---,0.00,VWS V14.01,2013-01-20 12:58:00,
2013-01-20 08:03:00,36.3,14.9,29.89,SSW,195,2.2,2.2,41,0.00,,---,0.00,VWS V14.01,2013-01-20 13:03:00,
2013-01-20 08:08:00,36.3,14.9,29.89,SSW,193,4.0,5.4,41,0.00,,---,0.00,VWS V14.01,2013-01-20 13:08:00,
2013-01-20 08:13:00,36.7,15.2,29.92,SE,146,2.7,2.7,41,0.00,,---,0.00,VWS V14.01,2013-01-20 13:13:00,
2013-01-20 08:18:00,36.9,15.4,29.92,WSW,252,3.1,3.1,41,0.00,,---,0.00,VWS V14.01,2013-01-20 13:18:00,
2013-01-20 08:23:00,36.9,15.4,29.92,WSW,252,8.7,8.7,41,0.00,,---,0.00,VWS V14.01,2013-01-20 13:23:00,
2013-01-20 08:28:00,37.0,15.5,29.92,SW,215,5.4,5.4,41,0.00,,---,0.00,VWS V14.01,2013-01-20 13:28:00,
2013-01-20 08:33:00,36.9,15.4,29.92,NW,324,4.9,4.9,41,0.00,,---,0.00,VWS V14.01,2013-01-20 13:33:00,
2013-01-20 08:38:00,36.9,15.4,29.92,WNW,293,4.9,5.4,41,0.00,,---,0.00,VWS V14.01,2013-01-20 13:38:00,
2013-01-20 08:43:00,37.0,15.5,29.92,WSW,249,8.3,8.3,41,0.00,,---,0.00,VWS V14.01,2013-01-20 13:43:00,
2013-01-20 08:48:00,37.0,15.5,29.92,WSW,258,6.3,6.3,41,0.00,,---,0.00,VWS V14.01,2013-01-20 13:48:00,
2013-01-20 08:53:00,37.0,15.5,29.92,SW,225,10.5,10.5,41,0.00,,---,0.00,VWS V14.01,2013-01-20 13:53:00,
2013-01-20 08:58:00,37.2,15.7,29.92,SSW,213,3.1,7.6,41,0.00,,---,0.00,VWS V14.01,2013-01-20 13:58:00,
2013-01-20 09:03:00,37.4,15.9,29.92,SW,219,4.0,5.8,41,0.00,,---,0.00,VWS V14.01,2013-01-20 14:03:00,
2013-01-20 09:08:00,37.4,15.9,29.92,SW,225,7.6,8.7,41,0.00,,---,0.00,VWS V14.01,2013-01-20 14:08:00,
2013-01-20 09:13:00,37.9,16.4,29.92,SW,222,3.6,5.4,41,0.00,,---,0.00,VWS V14.01,2013-01-20 14:13:00,
2013-01-20 09:18:00,37.9,16.4,29.92,West,267,4.9,4.9,41,0.00,,---,0.00,VWS V14.01,2013-01-20 14:18:00,
2013-01-20 09:24:00,37.9,16.4,29.92,SSW,198,3.6,3.6,41,0.00,,---,0.00,VWS V14.01,2013-01-20 14:24:00,
2013-01-20 09:29:00,37.9,16.4,29.92,SSE,147,2.7,5.4,41,0.00,,---,0.00,VWS V14.01,2013-01-20 14:29:00,
2013-01-20 09:34:00,37.9,16.4,29.92,SSW,204,0.0,0.0,41,0.00,,---,0.00,VWS V14.01,2013-01-20 14:34:00,
2013-01-20 09:39:00,38.1,16.5,29.92,South,189,2.7,5.8,41,0.00,,---,0.00,VWS V14.01,2013-01-20 14:39:00,
2013-01-20 09:44:00,38.7,17.0,29.92,SW,233,3.1,5.8,41,0.00,,---,0.00,VWS V14.01,2013-01-20 14:44:00,
2013-01-20 09:49:00,39.0,16.8,29.92,West,267,2.7,8.1,40,0.00,,---,0.00,VWS V14.01,2013-01-20 14:49:00,
2013-01-20 09:54:00,39.2,16.9,29.92,SSW,195,4.0,4.0,40,0.00,,---,0.00,VWS V14.01,2013-01-20 14:54:00,
2013-01-20 09:59:00,39.2,16.9,29.92,South,175,5.4,7.6,40,0.00,,---,0.00,VWS V14.01,2013-01-20 14:59:00,
2013-01-20 10:04:00,39.4,16.5,29.92,SW,218,2.7,5.4,39,0.00,,---,0.00,VWS V14.01,2013-01-20 15:04:00,
2013-01-20 10:09:00,39.4,16.5,29.92,SSW,212,8.1,8.3,39,0.00,,---,0.00,VWS V14.01,2013-01-20 15:09:00,
2013-01-20 10:14:00,39.4,17.1,29.92,South,177,3.1,3.1,40,0.00,,---,0.00,VWS V14.01,2013-01-20 15:14:00,
2013-01-20 10:19:00,39.7,16.8,29.92,SW,216,5.8,8.3,39,0.00,,---,0.00,VWS V14.01,2013-01-20 15:19:00,
2013-01-20 10:24:00,40.1,17.1,29.92,South,173,4.0,6.7,39,0.00,,---,0.00,VWS V14.01,2013-01-20 15:24:00,
2013-01-20 10:29:00,40.5,17.5,29.92,SW,219,6.3,6.7,39,0.00,,---,0.00,VWS V14.01,2013-01-20 15:29:00,
2013-01-20 10:35:00,40.8,17.8,29.92,SW,224,5.8,5.8,39,0.00,,---,0.00,VWS V14.01,2013-01-20 15:35:00,
2013-01-20 10:40:00,41.0,17.4,29.92,SW,229,3.1,4.0,38,0.00,,---,0.00,VWS V14.01,2013-01-20 15:40:00,
2013-01-20 10:45:00,41.2,17.5,29.92,SW,235,4.0,7.6,38,0.00,,---,0.00,VWS V14.01,2013-01-20 15:45:00,
2013-01-20 10:50:00,41.5,17.8,29.92,SW,217,8.1,8.3,38,0.00,,---,0.00,VWS V14.01,2013-01-20 15:50:00,
2013-01-20 10:55:00,41.7,18.0,29.92,SSW,211,2.7,5.8,38,0.00,,---,0.00,VWS V14.01,2013-01-20 15:55:00,
2013-01-20 11:00:00,41.9,18.2,29.92,SSW,205,8.3,8.3,38,0.00,,---,0.00,VWS V14.01,2013-01-20 16:00:00,
2013-01-20 11:05:00,42.3,17.9,29.92,WSW,242,4.9,8.1,37,0.00,,---,0.00,VWS V14.01,2013-01-20 16:05:00,
2013-01-20 11:10:00,42.8,17.1,29.89,SSW,200,7.6,7.6,35,0.00,,---,0.00,VWS V14.01,2013-01-20 16:10:00,
2013-01-20 11:15:00,43.0,16.5,29.89,SSW,196,6.3,7.2,34,0.00,,---,0.00,VWS V14.01,2013-01-20 16:15:00,
2013-01-20 11:20:00,43.3,16.9,29.89,SSW,204,5.4,5.4,34,0.00,,---,0.00,VWS V14.01,2013-01-20 16:20:00,
2013-01-20 11:25:00,43.7,16.5,29.89,SSE,150,5.4,5.4,33,0.00,,---,0.00,VWS V14.01,2013-01-20 16:25:00,
2013-01-20 11:30:00,44.2,16.3,29.89,SW,227,5.8,11.0,32,0.00,,---,0.00,VWS V14.01,2013-01-20 16:30:00,
2013-01-20 11:35:00,44.6,15.1,29.89,North,357,3.6,12.8,30,0.00,,---,0.00,VWS V14.01,2013-01-20 16:35:00,
2013-01-20 11:40:00,44.6,13.5,29.89,South,191,12.8,12.8,28,0.00,,---,0.00,VWS V14.01,2013-01-20 16:40:00,
2013-01-20 11:45:00,45.0,13.8,29.92,SSE,160,3.6,4.9,28,0.00,,---,0.00,VWS V14.01,2013-01-20 16:45:00,
2013-01-20 11:50:00,45.0,13.8,29.92,SSE,161,13.6,13.6,28,0.00,,---,0.00,VWS V14.01,2013-01-20 16:50:00,
2013-01-20 11:55:00,44.8,13.7,29.89,South,180,3.1,8.3,28,0.00,,---,0.00,VWS V14.01,2013-01-20 16:55:00,
2013-01-20 12:00:00,45.0,13.8,29.89,SSW,197,6.7,8.7,28,0.00,,---,0.00,VWS V14.01,2013-01-20 17:00:00,
2013-01-20 12:05:00,45.1,14.0,29.89,South,173,5.4,6.3,28,0.00,,---,0.00,VWS V14.01,2013-01-20 17:05:00,
2013-01-20 12:10:00,45.3,14.1,29.89,SW,214,8.7,11.4,28,0.00,,---,0.00,VWS V14.01,2013-01-20 17:10:00,
2013-01-20 12:15:00,45.5,14.3,29.89,South,177,9.6,9.6,28,0.00,,---,0.00,VWS V14.01,2013-01-20 17:15:00,
2013-01-20 12:20:00,45.7,14.5,29.89,West,278,8.3,8.7,28,0.00,,---,0.00,VWS V14.01,2013-01-20 17:20:00,
2013-01-20 12:25:00,46.0,14.8,29.89,South,178,2.7,5.4,28,0.00,,---,0.00,VWS V14.01,2013-01-20 17:25:00,
2013-01-20 12:30:00,46.0,14.8,29.89,West,261,3.6,4.0,28,0.00,,---,0.00,VWS V14.01,2013-01-20 17:30:00,
2013-01-20 12:35:00,46.4,14.2,29.89,South,190,8.1,15.4,27,0.00,,---,0.00,VWS V14.01,2013-01-20 17:35:00,
2013-01-20 12:40:00,46.4,14.2,29.86,SSE,159,5.8,8.3,27,0.00,,---,0.00,VWS V14.01,2013-01-20 17:40:00,
2013-01-20 12:45:00,46.6,14.4,29.86,SSE,159,10.5,10.5,27,0.00,,---,0.00,VWS V14.01,2013-01-20 17:45:00,
2013-01-20 12:50:00,46.6,14.4,29.86,SW,230,5.8,5.8,27,0.00,,---,0.00,VWS V14.01,2013-01-20 17:50:00,
2013-01-20 12:55:00,46.8,14.6,29.89,South,178,4.9,6.3,27,0.00,,---,0.00,VWS V14.01,2013-01-20 17:55:00,
2013-01-20 13:01:00,46.8,14.6,29.89,West,278,0.0,3.6,27,0.00,,---,0.00,VWS V14.01,2013-01-20 18:01:00,
2013-01-20 13:06:00,46.8,14.6,29.89,SW,225,9.6,11.0,27,0.00,,---,0.00,VWS V14.01,2013-01-20 18:06:00,
2013-01-20 13:11:00,46.4,14.2,29.89,SSW,197,6.3,10.5,27,0.00,,---,0.00,VWS V14.01,2013-01-20 18:11:00,
2013-01-20 13:16:00,46.4,14.2,29.89,South,181,5.8,5.8,27,0.00,,---,0.00,VWS V14.01,2013-01-20 18:16:00,
2013-01-20 13:21:00,46.6,14.4,29.89,WSW,249,10.5,11.0,27,0.00,,---,0.00,VWS V14.01,2013-01-20 18:21:00,
2013-01-20 13:26:00,46.6,14.4,29.89,SW,216,12.8,15.0,27,0.00,,---,0.00,VWS V14.01,2013-01-20 18:26:00,
2013-01-20 13:31:00,46.6,14.4,29.89,SW,228,8.1,11.0,27,0.00,,---,0.00,VWS V14.01,2013-01-20 18:31:00,
2013-01-20 13:36:00,46.9,14.7,29.89,SSW,198,4.9,4.9,27,0.00,,---,0.00,VWS V14.01,2013-01-20 18:36:00,
2013-01-20 13:41:00,46.9,14.7,29.89,SSW,205,6.3,8.3,27,0.00,,---,0.00,VWS V14.01,2013-01-20 18:41:00,
2013-01-20 13:46:00,46.8,14.6,29.89,SSW,199,10.5,10.5,27,0.00,,---,0.00,VWS V14.01,2013-01-20 18:46:00,
2013-01-20 13:51:00,46.9,14.7,29.89,SSE,164,3.6,5.8,27,0.00,,---,0.00,VWS V14.01,2013-01-20 18:51:00,
2013-01-20 13:56:00,47.1,14.9,29.89,SW,228,11.4,11.4,27,0.00,,---,0.00,VWS V14.01,2013-01-20 18:56:00,
2013-01-20 14:01:00,46.9,14.7,29.89,SW,222,10.1,11.0,27,0.00,,---,0.00,VWS V14.01,2013-01-20 19:01:00,
2013-01-20 14:06:00,47.3,15.0,29.89,SSW,197,7.6,8.1,27,0.00,,---,0.00,VWS V14.01,2013-01-20 19:06:00,
2013-01-20 14:11:00,47.3,15.0,29.89,SW,230,6.3,8.7,27,0.00,,---,0.00,VWS V14.01,2013-01-20 19:11:00,
2013-01-20 14:16:00,47.1,14.9,29.89,SW,234,3.6,6.3,27,0.00,,---,0.00,VWS V14.01,2013-01-20 19:16:00,
2013-01-20 14:21:00,47.3,15.0,29.89,South,189,4.0,5.4,27,0.00,,---,0.00,VWS V14.01,2013-01-20 19:21:00,
2013-01-20 14:26:00,47.5,15.2,29.89,South,183,6.3,6.3,27,0.00,,---,0.00,VWS V14.01,2013-01-20 19:26:00,
2013-01-20 14:31:00,47.5,15.2,29.89,SSW,195,7.6,11.4,27,0.00,,---,0.00,VWS V14.01,2013-01-20 19:31:00,
2013-01-20 14:37:00,47.3,15.0,29.89,SSW,205,5.4,8.1,27,0.00,,---,0.00,VWS V14.01,2013-01-20 19:37:00,
2013-01-20 14:42:00,47.7,15.3,29.89,SW,229,3.6,8.3,27,0.00,,---,0.00,VWS V14.01,2013-01-20 19:42:00,
2013-01-20 14:47:00,47.8,15.5,29.89,SW,230,2.7,5.8,27,0.00,,---,0.00,VWS V14.01,2013-01-20 19:47:00,
2013-01-20 14:52:00,48.4,15.1,29.89,South,178,5.8,5.8,26,0.00,,---,0.00,VWS V14.01,2013-01-20 19:52:00,
2013-01-20 14:57:00,48.2,14.9,29.89,SW,226,5.8,6.7,26,0.00,,---,0.00,VWS V14.01,2013-01-20 19:57:00,
2013-01-20 15:02:00,48.0,13.0,29.89,NW,310,6.3,6.3,24,0.00,,---,0.00,VWS V14.01,2013-01-20 20:02:00,
2013-01-20 15:07:00,47.8,12.8,29.89,SW,224,5.8,8.3,24,0.00,,---,0.00,VWS V14.01,2013-01-20 20:07:00,
2013-01-20 15:12:00,48.0,13.0,29.89,SSW,209,5.4,8.3,24,0.00,,---,0.00,VWS V14.01,2013-01-20 20:12:00,
2013-01-20 15:17:00,47.8,12.8,29.89,SSW,205,2.7,3.1,24,0.00,,---,0.00,VWS V14.01,2013-01-20 20:17:00,
2013-01-20 15:22:00,47.8,12.8,29.89,SSW,205,5.8,5.8,24,0.00,,---,0.00,VWS V14.01,2013-01-20 20:22:00,
2013-01-20 15:27:00,48.0,13.0,29.89,SW,219,6.3,7.6,24,0.00,,---,0.00,VWS V14.01,2013-01-20 20:27:00,
2013-01-20 15:32:00,47.7,12.7,29.89,South,187,8.1,8.1,24,0.00,,---,0.00,VWS V14.01,2013-01-20 20:32:00,
2013-01-20 15:37:00,47.3,12.4,29.89,SSW,196,8.7,8.7,24,0.00,,---,0.00,VWS V14.01,2013-01-20 20:37:00,
2013-01-20 15:42:00,47.1,12.2,29.92,SSW,203,8.3,12.3,24,0.00,,---,0.00,VWS V14.01,2013-01-20 20:42:00,
2013-01-20 15:47:00,46.9,12.1,29.92,SW,222,8.1,8.1,24,0.00,,---,0.00,VWS V14.01,2013-01-20 20:47:00,
2013-01-20 15:52:00,46.8,11.9,29.92,South,188,4.9,5.4,24,0.00,,---,0.00,VWS V14.01,2013-01-20 20:52:00,
2013-01-20 15:57:00,46.9,12.1,29.92,SW,218,3.6,7.6,24,0.00,,---,0.00,VWS V14.01,2013-01-20 20:57:00,
2013-01-20 16:02:00,47.3,12.4,29.92,SSE,157,5.8,5.8,24,0.00,,---,0.00,VWS V14.01,2013-01-20 21:02:00,
2013-01-20 16:07:00,47.3,12.4,29.92,South,189,4.0,6.3,24,0.00,,---,0.00,VWS V14.01,2013-01-20 21:07:00,
2013-01-20 16:12:00,47.1,12.2,29.92,SE,144,8.1,8.1,24,0.00,,---,0.00,VWS V14.01,2013-01-20 21:12:00,
2013-01-20 16:18:00,46.8,11.9,29.92,SW,214,5.4,5.4,24,0.00,,---,0.00,VWS V14.01,2013-01-20 21:18:00,
2013-01-20 16:23:00,46.8,11.9,29.92,SSW,205,3.6,5.4,24,0.00,,---,0.00,VWS V14.01,2013-01-20 21:23:00,
2013-01-20 16:28:00,46.6,11.7,29.92,SSE,164,0.0,6.3,24,0.00,,---,0.00,VWS V14.01,2013-01-20 21:28:00,
2013-01-20 16:33:00,46.6,9.8,29.92,WSW,253,5.8,6.3,22,0.00,,---,0.00,VWS V14.01,2013-01-20 21:33:00,
2013-01-20 16:38:00,46.2,9.5,29.92,WSW,246,7.6,8.1,22,0.00,,---,0.00,VWS V14.01,2013-01-20 21:38:00,
2013-01-20 16:43:00,45.5,8.9,29.95,SSE,167,5.4,5.4,22,0.00,,---,0.00,VWS V14.01,2013-01-20 21:43:00,
2013-01-20 16:48:00,45.0,8.4,29.95,WSW,253,6.3,7.6,22,0.00,,---,0.00,VWS V14.01,2013-01-20 21:48:00,
2013-01-20 16:53:00,44.2,8.8,29.95,SW,223,6.3,8.1,23,0.00,,---,0.00,VWS V14.01,2013-01-20 21:53:00,
2013-01-20 16:58:00,44.1,8.6,29.95,SW,227,3.6,3.6,23,0.00,,---,0.00,VWS V14.01,2013-01-20 21:58:00,
2013-01-20 17:03:00,43.9,8.5,29.95,SSW,209,4.9,4.9,23,0.00,,---,0.00,VWS V14.01,2013-01-20 22:03:00,
2013-01-20 17:08:00,43.5,8.2,29.95,SW,218,3.1,4.0,23,0.00,,---,0.00,VWS V14.01,2013-01-20 22:08:00,
2013-01-20 17:13:00,43.0,7.7,29.95,South,190,2.2,2.7,23,0.00,,---,0.00,VWS V14.01,2013-01-20 22:13:00,
2013-01-20 17:18:00,42.1,7.0,29.95,South,183,3.1,4.9,23,0.00,,---,0.00,VWS V14.01,2013-01-20 22:18:00,
2013-01-20 17:24:00,41.0,6.1,29.95,WSW,240,0.0,4.0,23,0.00,,---,0.00,VWS V14.01,2013-01-20 22:24:00,
2013-01-20 17:29:00,40.3,5.4,29.95,SSW,208,0.0,0.0,23,0.00,,---,0.00,VWS V14.01,2013-01-20 22:29:00,
2013-01-20 17:34:00,39.7,5.0,29.95,WSW,249,2.2,6.3,23,0.00,,---,0.00,VWS V14.01,2013-01-20 22:34:00,
2013-01-20 17:39:00,39.4,4.7,29.95,South,180,8.3,8.3,23,0.00,,---,0.00,VWS V14.01,2013-01-20 22:39:00,
2013-01-20 17:44:00,39.2,4.5,29.95,SSW,213,3.6,4.0,23,0.00,,---,0.00,VWS V14.01,2013-01-20 22:44:00,
2013-01-20 17:49:00,39.2,4.5,29.95,South,176,4.0,5.4,23,0.00,,---,0.00,VWS V14.01,2013-01-20 22:49:00,
2013-01-20 17:54:00,39.0,5.3,29.95,SW,218,0.0,0.0,24,0.00,,---,0.00,VWS V14.01,2013-01-20 22:54:00,
2013-01-20 17:59:00,38.8,5.2,29.95,South,176,3.6,3.6,24,0.00,,---,0.00,VWS V14.01,2013-01-20 22:59:00,
2013-01-20 18:04:00,38.5,4.8,29.95,South,187,0.0,0.0,24,0.00,,---,0.00,VWS V14.01,2013-01-20 23:04:00,
2013-01-20 18:09:00,37.6,5.8,29.95,NE,54,0.0,0.0,26,0.00,,---,0.00,VWS V14.01,2013-01-20 23:09:00,
2013-01-20 18:14:00,37.0,6.2,29.95,SSW,207,3.1,3.1,27,0.00,,---,0.00,VWS V14.01,2013-01-20 23:14:00,
2013-01-20 18:19:00,37.0,6.2,29.95,NE,38,0.0,0.0,27,0.00,,---,0.00,VWS V14.01,2013-01-20 23:19:00,
2013-01-20 18:24:00,36.9,6.0,29.95,East,88,0.0,2.7,27,0.00,,---,0.00,VWS V14.01,2013-01-20 23:24:00,
2013-01-20 18:29:00,36.9,6.0,29.95,SW,233,2.7,2.7,27,0.00,,---,0.00,VWS V14.01,2013-01-20 23:29:00,
2013-01-20 18:34:00,36.9,6.0,29.95,East,81,0.0,0.0,27,0.00,,---,0.00,VWS V14.01,2013-01-20 23:34:00,
2013-01-20 18:39:00,36.9,6.0,29.95,SW,226,0.0,2.7,27,0.00,,---,0.00,VWS V14.01,2013-01-20 23:39:00,
2013-01-20 18:44:00,36.7,5.9,29.95,WSW,243,4.0,4.0,27,0.00,,---,0.00,VWS V14.01,2013-01-20 23:44:00,
2013-01-20 18:49:00,36.7,5.9,29.95,South,184,0.0,0.0,27,0.00,,---,0.00,VWS V14.01,2013-01-20 23:49:00,
2013-01-20 18:55:00,36.1,7.0,29.98,NE,38,3.6,3.6,29,0.00,,---,0.00,VWS V14.01,2013-01-20 23:55:00,
2013-01-20 19:00:00,35.2,6.9,29.98,ENE,74,0.0,0.0,30,0.00,,---,0.00,VWS V14.01,2013-01-21 00:00:00,
2013-01-20 19:05:00,34.7,6.4,29.98,East,85,0.0,3.1,30,0.00,,---,0.00,VWS V14.01,2013-01-21 00:05:00,
2013-01-20 19:10:00,34.5,6.3,29.98,East,85,0.0,0.0,30,0.00,,---,0.00,VWS V14.01,2013-01-21 00:10:00,
2013-01-20 19:15:00,34.2,6.0,29.98,SE,146,0.0,0.0,30,0.00,,---,0.00,VWS V14.01,2013-01-21 00:15:00,
2013-01-20 19:20:00,34.0,5.8,29.98,WNW,297,2.2,2.2,30,0.00,,---,0.00,VWS V14.01,2013-01-21 00:20:00,
2013-01-20 19:25:00,34.5,6.3,29.98,WNW,299,0.0,0.0,30,0.00,,---,0.00,VWS V14.01,2013-01-21 00:25:00,
2013-01-20 19:30:00,34.5,6.3,29.98,SSW,210,0.0,0.0,30,0.00,,---,0.00,VWS V14.01,2013-01-21 00:30:00,
2013-01-20 19:35:00,34.3,6.1,29.98,ESE,104,0.0,0.0,30,0.00,,---,0.00,VWS V14.01,2013-01-21 00:35:00,
2013-01-20 19:40:00,33.8,6.4,29.98,East,95,0.0,0.0,31,0.00,,---,0.00,VWS V14.01,2013-01-21 00:40:00,
2013-01-20 19:45:00,33.3,6.6,29.98,East,89,0.0,0.0,32,0.00,,---,0.00,VWS V14.01,2013-01-21 00:45:00,
2013-01-20 19:50:00,32.9,6.3,29.98,East,82,0.0,0.0,32,0.00,,---,0.00,VWS V14.01,2013-01-21 00:50:00,
2013-01-20 19:55:00,32.7,6.8,29.98,North,11,0.0,0.0,33,0.00,,---,0.00,VWS V14.01,2013-01-21 00:55:00,
2013-01-20 20:00:00,32.5,7.3,29.98,North,11,0.0,0.0,34,0.00,,---,0.00,VWS V14.01,2013-01-21 01:00:00,
2013-01-20 20:05:00,32.5,7.3,29.98,SE,135,0.0,0.0,34,0.00,,---,0.00,VWS V14.01,2013-01-21 01:05:00,
2013-01-20 20:10:00,32.2,7.0,29.98,NE,50,3.1,5.4,34,0.00,,---,0.00,VWS V14.01,2013-01-21 01:10:00,
2013-01-20 20:15:00,32.2,7.0,29.98,ENE,71,0.0,0.0,34,0.00,,---,0.00,VWS V14.01,2013-01-21 01:15:00,
2013-01-20 20:20:00,32.0,7.5,29.98,NE,44,3.1,3.6,35,0.00,,---,0.00,VWS V14.01,2013-01-21 01:20:00,
2013-01-20 20:25:00,31.8,7.3,29.98,North,8,2.7,3.6,35,0.00,,---,0.00,VWS V14.01,2013-01-21 01:25:00,
2013-01-20 20:30:00,31.8,6.7,29.98,North,8,0.0,0.0,34,0.00,,---,0.00,VWS V14.01,2013-01-21 01:30:00,
2013-01-20 20:35:00,31.8,7.3,29.98,North,11,0.0,0.0,35,0.00,,---,0.00,VWS V14.01,2013-01-21 01:35:00,
2013-01-20 20:40:00,31.6,7.1,29.98,North,6,0.0,2.7,35,0.00,,---,0.00,VWS V14.01,2013-01-21 01:40:00,
2013-01-20 20:46:00,31.6,6.5,29.98,North,6,0.0,0.0,34,0.00,,---,0.00,VWS V14.01,2013-01-21 01:46:00,
2013-01-20 20:51:00,31.5,7.0,29.98,East,96,0.0,0.0,35,0.00,,---,0.00,VWS V14.01,2013-01-21 01:51:00,
2013-01-20 20:56:00,31.3,7.4,29.98,East,96,0.0,0.0,36,0.00,,---,0.00,VWS V14.01,2013-01-21 01:56:00,
2013-01-20 21:01:00,31.1,6.7,29.98,East,83,0.0,0.0,35,0.00,,---,0.00,VWS V14.01,2013-01-21 02:01:00,
2013-01-20 21:06:00,30.9,6.5,29.98,NE,47,0.0,0.0,35,0.00,,---,0.00,VWS V14.01,2013-01-21 02:06:00,
2013-01-20 21:11:00,31.1,6.0,29.98,NE,51,0.0,0.0,34,0.00,,---,0.00,VWS V14.01,2013-01-21 02:11:00,
2013-01-20 21:17:00,31.1,6.0,29.98,East,82,0.0,0.0,34,0.00,,---,0.00,VWS V14.01,2013-01-21 02:17:00,
2013-01-20 21:22:00,31.1,6.0,29.98,East,84,0.0,0.0,34,0.00,,---,0.00,VWS V14.01,2013-01-21 02:22:00,
2013-01-20 21:27:00,31.1,4.7,29.98,SSW,206,2.2,2.7,32,0.00,,---,0.00,VWS V14.01,2013-01-21 02:27:00,
2013-01-20 21:32:00,31.6,5.2,29.98,WSW,246,0.0,0.0,32,0.00,,---,0.00,VWS V14.01,2013-01-21 02:32:00,
2013-01-20 21:37:00,31.3,5.5,29.98,SSE,156,0.0,0.0,33,0.00,,---,0.00,VWS V14.01,2013-01-21 02:37:00,
2013-01-20 21:42:00,30.9,5.9,29.98,ENE,77,0.0,0.0,34,0.00,,---,0.00,VWS V14.01,2013-01-21 02:42:00,
2013-01-20 21:47:00,30.4,5.4,29.98,South,184,2.7,2.7,34,0.00,,---,0.00,VWS V14.01,2013-01-21 02:47:00,
2013-01-20 21:52:00,30.2,5.2,29.98,SSE,166,0.0,0.0,34,0.00,,---,0.00,VWS V14.01,2013-01-21 02:52:00,
2013-01-20 21:57:00,30.2,5.2,29.98,North,0,0.0,2.2,34,0.00,,---,0.00,VWS V14.01,2013-01-21 02:57:00,
2013-01-20 23:02:00,29.5,3.9,29.98,NE,54,0.0,0.0,33,0.00,,---,0.00,VWS V14.01,2013-01-21 04:02:00,
2013-01-20 23:07:00,29.5,4.6,29.98,NE,54,0.0,0.0,34,0.00,,---,0.00,VWS V14.01,2013-01-21 04:07:00,
2013-01-20 23:12:00,29.1,4.3,29.98,NE,54,0.0,0.0,34,0.00,,---,0.00,VWS V14.01,2013-01-21 04:12:00,
2013-01-20 23:17:00,28.8,3.9,29.98,NE,54,0.0,0.0,34,0.00,,---,0.00,VWS V14.01,2013-01-21 04:17:00,
2013-01-20 23:22:00,28.8,3.3,29.98,ESE,114,0.0,2.2,33,0.00,,---,0.00,VWS V14.01,2013-01-21 04:22:00,
2013-01-20 23:27:00,28.9,4.1,29.98,SE,129,4.0,4.0,34,0.00,,---,0.00,VWS V14.01,2013-01-21 04:27:00,
2013-01-20 23:32:00,28.9,4.1,29.98,West,259,0.0,0.0,34,0.00,,---,0.00,VWS V14.01,2013-01-21 04:32:00,
2013-01-20 23:38:00,28.8,3.9,29.98,West,259,0.0,0.0,34,0.00,,---,0.00,VWS V14.01,2013-01-21 04:38:00,
2013-01-20 23:43:00,28.6,3.8,29.98,NE,54,0.0,0.0,34,0.00,,---,0.00,VWS V14.01,2013-01-21 04:43:00,
2013-01-20 23:48:00,28.6,3.8,29.98,NE,54,0.0,0.0,34,0.00,,---,0.00,VWS V14.01,2013-01-21 04:48:00,
2013-01-20 23:53:00,28.6,3.8,29.98,NE,54,0.0,0.0,34,0.00,,---,0.00,VWS V14.01,2013-01-21 04:53:00,
2013-01-20 23:58:00,28.4,3.6,29.98,NE,54,0.0,0.0,34,0.00,,---,0.00,VWS V14.01,2013-01-21 04:58:00,